createdAt,value
2022-10-23T00:00:37.990Z,19.10
2022-10-23T00:03:04.790Z,16.33
2022-10-23T00:05:31.804Z,16.43
2022-10-23T00:07:59.820Z,18.57
2022-10-23T00:10:27.737Z,17.57
2022-10-23T00:12:54.420Z,19.70
2022-10-23T00:15:23.090Z,15.10
2022-10-23T00:17:49.538Z,15.40
2022-10-23T00:20:17.503Z,17.33
2022-10-23T00:22:43.891Z,15.03
2022-10-23T00:25:10.988Z,18.70
2022-10-23T00:27:37.616Z,18.03
2022-10-23T00:30:06.058Z,22.93
2022-10-23T00:35:04.428Z,19.43
2022-10-23T00:37:30.949Z,28.03
2022-10-23T00:39:57.306Z,19.03
2022-10-23T00:42:23.961Z,22.40
2022-10-23T00:44:50.304Z,21.80
2022-10-23T00:47:17.413Z,20.60
2022-10-23T00:49:43.879Z,19.67
2022-10-23T00:52:12.169Z,20.10
2022-10-23T00:54:41.497Z,20.03
2022-10-23T00:57:12.262Z,23.87
2022-10-23T00:59:39.235Z,19.67
2022-10-23T01:02:06.169Z,15.20
2022-10-23T01:04:34.164Z,15.93
2022-10-23T01:07:32.975Z,17.93
2022-10-23T01:10:11.469Z,17.47
2022-10-23T01:12:50.347Z,24.83
2022-10-23T01:15:30.912Z,18.40
2022-10-23T01:18:06.524Z,15.20
2022-10-23T01:20:44.622Z,20.10
2022-10-23T01:23:43.766Z,17.70
2022-10-23T01:26:37.236Z,18.80
2022-10-23T01:29:09.833Z,14.93
2022-10-23T01:31:48.649Z,13.77
2022-10-23T01:34:35.495Z,25.87
2022-10-23T01:37:05.205Z,22.37
2022-10-23T01:39:36.881Z,19.50
2022-10-23T01:42:36.408Z,18.03
2022-10-23T01:45:08.971Z,23.83
2022-10-23T01:47:36.562Z,18.20
2022-10-23T01:50:06.000Z,18.40
2022-10-23T01:52:32.412Z,18.10
2022-10-23T01:55:01.398Z,23.27
2022-10-23T01:57:31.051Z,22.93
2022-10-23T02:00:02.194Z,15.73
2022-10-23T02:02:32.335Z,17.47
2022-10-23T02:05:03.918Z,14.97
2022-10-23T02:07:30.663Z,19.90
2022-10-23T02:09:57.270Z,18.00
2022-10-23T02:12:38.563Z,18.27
2022-10-23T02:15:12.295Z,19.83
2022-10-23T02:17:51.499Z,19.67
2022-10-23T02:20:27.907Z,18.10
2022-10-23T02:23:13.242Z,22.27
2022-10-23T02:26:08.672Z,20.03
2022-10-23T02:28:43.255Z,19.40
2022-10-23T02:31:14.088Z,20.60
2022-10-23T02:33:40.973Z,18.83
2022-10-23T02:36:07.720Z,19.80
2022-10-23T02:38:40.622Z,26.70
2022-10-23T02:41:42.246Z,17.43
2022-10-23T02:44:15.298Z,22.70
2022-10-23T02:47:21.439Z,19.40
2022-10-23T02:50:13.556Z,21.97
2022-10-23T02:52:52.475Z,18.57
2022-10-23T02:55:36.567Z,21.90
2022-10-23T02:58:06.030Z,19.60
2022-10-23T03:00:35.172Z,16.93
2022-10-23T03:03:15.845Z,21.40
2022-10-23T03:05:44.893Z,15.40
2022-10-23T03:08:13.080Z,19.93
2022-10-23T03:10:41.245Z,18.80
2022-10-23T03:13:09.558Z,28.90
2022-10-23T03:15:35.900Z,14.80
2022-10-23T03:18:02.288Z,15.30
2022-10-23T03:20:28.622Z,20.37
2022-10-23T03:22:55.047Z,16.60
2022-10-23T03:25:21.370Z,18.37
2022-10-23T03:27:47.724Z,22.67
2022-10-23T03:30:15.887Z,15.10
2022-10-23T03:32:42.493Z,15.70
2022-10-23T03:35:09.169Z,18.30
2022-10-23T03:37:35.555Z,21.87
2022-10-23T03:40:02.152Z,22.10
2022-10-23T03:42:28.540Z,19.03
2022-10-23T03:44:54.871Z,20.17
2022-10-23T03:47:21.735Z,17.33
2022-10-23T03:49:48.084Z,16.97
2022-10-23T03:52:14.604Z,20.87
2022-10-23T03:54:40.943Z,14.67
2022-10-23T03:57:07.300Z,19.63
2022-10-23T03:59:33.706Z,16.17
2022-10-23T04:02:00.252Z,12.93
2022-10-23T04:04:26.695Z,14.33
2022-10-23T04:06:53.068Z,15.93
2022-10-23T04:09:19.409Z,15.07
2022-10-23T04:11:45.780Z,13.03
2022-10-23T04:14:13.374Z,13.60
2022-10-23T04:16:39.889Z,16.43
2022-10-23T04:19:06.348Z,14.03
2022-10-23T04:21:32.998Z,18.80
2022-10-23T04:23:59.471Z,16.90
2022-10-23T04:26:25.792Z,17.50
2022-10-23T04:28:52.163Z,16.80
2022-10-23T04:31:18.500Z,16.53
2022-10-23T04:33:44.933Z,13.03
2022-10-23T04:36:11.249Z,21.17
2022-10-23T04:38:37.627Z,17.80
2022-10-23T04:41:04.041Z,17.13
2022-10-23T04:43:30.420Z,13.23
2022-10-23T04:45:56.760Z,13.93
2022-10-23T04:48:25.570Z,14.77
2022-10-23T04:50:58.849Z,13.27
2022-10-23T04:53:25.918Z,19.60
2022-10-23T04:55:54.266Z,18.77
2022-10-23T04:58:20.630Z,15.90
2022-10-23T05:00:47.687Z,14.73
2022-10-23T05:03:14.588Z,11.03
2022-10-23T05:05:41.639Z,13.63
2022-10-23T05:08:08.352Z,12.53
2022-10-23T05:10:34.805Z,11.33
2022-10-23T05:13:01.752Z,11.27
2022-10-23T05:15:28.405Z,15.53
2022-10-23T05:17:59.753Z,14.87
2022-10-23T05:20:30.915Z,15.73
2022-10-23T05:23:00.470Z,21.30
2022-10-23T05:25:27.135Z,15.20
2022-10-23T05:27:53.565Z,14.30
2022-10-23T05:30:19.905Z,18.33
2022-10-23T05:32:46.456Z,13.93
2022-10-23T05:35:17.987Z,15.10
2022-10-23T05:37:46.060Z,11.23
2022-10-23T05:40:12.749Z,15.93
2022-10-23T05:42:40.928Z,13.60
2022-10-23T05:45:08.749Z,12.97
2022-10-23T05:47:35.264Z,11.83
2022-10-23T05:50:01.594Z,14.93
2022-10-23T05:52:27.956Z,12.63
2022-10-23T05:54:54.318Z,11.87
2022-10-23T05:57:20.714Z,9.60
2022-10-23T05:59:47.064Z,16.47
2022-10-23T06:02:13.559Z,12.23
2022-10-23T06:04:39.958Z,16.80
2022-10-23T06:07:06.313Z,15.20
2022-10-23T06:09:32.643Z,15.43
2022-10-23T06:11:59.052Z,18.77
2022-10-23T06:14:25.385Z,14.40
2022-10-23T06:16:51.789Z,17.60
2022-10-23T06:19:18.207Z,13.40
2022-10-23T06:21:44.638Z,14.70
2022-10-23T06:24:11.063Z,23.60
2022-10-23T06:26:37.808Z,14.70
2022-10-23T06:29:04.402Z,15.57
2022-10-23T06:31:30.772Z,18.43
2022-10-23T06:33:58.700Z,12.30
2022-10-23T06:36:26.512Z,15.13
2022-10-23T06:38:52.951Z,13.90
2022-10-23T06:41:21.706Z,15.13
2022-10-23T06:43:49.555Z,25.70
2022-10-23T06:46:16.701Z,25.73
2022-10-23T06:48:43.172Z,18.13
2022-10-23T06:51:11.365Z,13.60
2022-10-23T06:53:37.944Z,23.37
2022-10-23T06:56:07.641Z,18.90
2022-10-23T06:58:35.965Z,20.17
2022-10-23T07:01:04.958Z,13.03
2022-10-23T07:03:32.126Z,15.30
2022-10-23T07:06:05.960Z,9.97
2022-10-23T07:08:32.747Z,14.83
2022-10-23T07:11:03.839Z,13.60
2022-10-23T07:13:30.162Z,16.13
2022-10-23T07:15:56.539Z,14.97
2022-10-23T07:18:22.894Z,9.53
2022-10-23T07:20:51.021Z,13.10
2022-10-23T07:23:17.390Z,12.20
2022-10-23T07:25:43.714Z,12.07
2022-10-23T07:28:10.076Z,11.50
2022-10-23T07:30:36.420Z,15.20
2022-10-23T07:33:02.958Z,10.00
2022-10-23T07:35:29.551Z,14.30
2022-10-23T07:37:56.120Z,18.10
2022-10-23T07:40:22.470Z,10.50
2022-10-23T07:42:49.113Z,20.70
2022-10-23T07:45:15.556Z,13.33
2022-10-23T07:47:42.203Z,16.63
2022-10-23T07:50:09.180Z,13.00
2022-10-23T07:52:36.369Z,16.33
2022-10-23T07:55:02.966Z,17.50
2022-10-23T07:57:29.329Z,17.57
2022-10-23T07:59:55.663Z,15.43
2022-10-23T08:02:22.143Z,14.97
2022-10-23T08:04:49.847Z,14.03
2022-10-23T08:07:16.204Z,18.53
2022-10-23T08:09:42.533Z,11.73
2022-10-23T08:12:09.800Z,11.60
2022-10-23T08:14:36.124Z,18.50
2022-10-23T08:17:03.272Z,8.57
2022-10-23T08:19:29.767Z,17.00
2022-10-23T08:21:57.236Z,13.53
2022-10-23T08:24:23.768Z,12.23
2022-10-23T08:26:50.751Z,14.33
2022-10-23T08:29:17.480Z,13.50
2022-10-23T08:31:44.056Z,10.70
2022-10-23T08:34:10.403Z,15.77
2022-10-23T08:36:36.775Z,9.00
2022-10-23T08:39:03.212Z,7.80
2022-10-23T08:41:34.102Z,7.17
2022-10-23T08:44:18.746Z,11.43
2022-10-23T08:46:49.894Z,11.60
2022-10-23T08:49:49.580Z,15.37
2022-10-23T08:52:23.284Z,11.07
2022-10-23T08:54:53.293Z,5.30
2022-10-23T08:57:23.236Z,11.53
2022-10-23T09:00:18.922Z,8.90
2022-10-23T09:02:49.607Z,7.70
2022-10-23T09:05:24.686Z,7.73
2022-10-23T09:08:21.706Z,11.83
2022-10-23T09:11:11.516Z,6.33
2022-10-23T09:13:56.595Z,10.23
2022-10-23T09:16:40.976Z,8.00
2022-10-23T09:19:19.038Z,8.50
2022-10-23T09:21:49.854Z,7.50
2022-10-23T09:24:20.649Z,5.17
2022-10-23T09:26:49.875Z,9.53
2022-10-23T09:29:32.721Z,9.13
2022-10-23T09:32:01.350Z,8.00
2022-10-23T09:34:29.972Z,9.77
2022-10-23T09:37:02.368Z,8.80
2022-10-23T09:39:31.571Z,8.50
2022-10-23T09:41:59.883Z,8.20
2022-10-23T09:44:31.401Z,5.83
2022-10-23T09:47:11.328Z,9.23
2022-10-23T09:49:40.436Z,11.20
2022-10-23T09:52:12.971Z,6.63
2022-10-23T09:54:45.442Z,7.70
2022-10-23T09:57:33.476Z,6.30
2022-10-23T10:00:27.032Z,7.80
2022-10-23T10:02:58.188Z,9.73
2022-10-23T10:05:36.688Z,5.77
2022-10-23T10:08:32.145Z,13.53
2022-10-23T10:11:12.153Z,6.53
2022-10-23T10:14:00.364Z,13.80
2022-10-23T10:16:32.414Z,7.50
2022-10-23T10:19:17.211Z,7.10
2022-10-23T10:21:56.816Z,6.00
2022-10-23T10:24:34.596Z,6.53
2022-10-23T10:27:31.476Z,8.17
2022-10-23T10:30:19.864Z,6.57
2022-10-23T10:32:59.246Z,8.33
2022-10-23T10:35:40.664Z,7.37
2022-10-23T10:38:44.274Z,16.40
2022-10-23T10:41:32.345Z,8.67
2022-10-23T10:44:17.053Z,5.87
2022-10-23T10:46:58.775Z,9.20
2022-10-23T10:49:34.452Z,10.87
2022-10-23T10:52:25.453Z,7.60
2022-10-23T10:54:59.484Z,6.20
2022-10-23T10:57:32.058Z,5.57
2022-10-23T11:00:04.117Z,22.27
2022-10-23T11:02:45.828Z,6.97
2022-10-23T11:05:38.152Z,5.37
2022-10-23T11:08:14.656Z,8.03
2022-10-23T11:10:46.251Z,11.43
2022-10-23T11:13:27.303Z,10.40
2022-10-23T11:15:59.742Z,14.73
2022-10-23T11:18:29.542Z,5.30
2022-10-23T11:21:09.982Z,10.13
2022-10-23T11:24:13.680Z,4.97
2022-10-23T11:27:00.124Z,4.77
2022-10-23T11:29:48.841Z,7.60
2022-10-23T11:32:54.967Z,6.87
2022-10-23T11:35:45.165Z,6.23
2022-10-23T11:38:17.394Z,8.10
2022-10-23T11:43:33.483Z,4.90
2022-10-23T11:46:12.920Z,9.00
2022-10-23T11:48:42.430Z,6.00
2022-10-23T11:51:28.915Z,6.70
2022-10-23T11:54:24.578Z,5.13
2022-10-23T11:56:55.413Z,10.13
2022-10-23T11:59:31.640Z,13.47
2022-10-23T12:02:01.969Z,8.87
2022-10-23T12:04:39.651Z,12.47
2022-10-23T12:07:21.203Z,8.67
2022-10-23T12:10:25.943Z,4.50
2022-10-23T12:13:34.198Z,7.00
2022-10-23T12:16:01.154Z,7.80
2022-10-23T12:18:27.733Z,8.67
2022-10-23T12:20:57.467Z,7.17
2022-10-23T12:24:27.851Z,8.20
2022-10-23T12:27:04.034Z,7.73
2022-10-23T12:30:09.012Z,12.37
2022-10-23T12:33:12.408Z,7.40
2022-10-23T12:36:23.303Z,4.70
2022-10-23T12:38:54.652Z,6.33
2022-10-23T12:41:34.042Z,6.13
2022-10-23T12:44:04.076Z,6.10
2022-10-23T12:46:36.452Z,4.13
2022-10-23T12:49:12.737Z,7.53
2022-10-23T12:51:39.096Z,6.40
2022-10-23T12:54:16.235Z,3.17
2022-10-23T12:56:44.207Z,8.87
2022-10-23T12:59:17.104Z,9.33
2022-10-23T13:01:43.910Z,7.50
2022-10-23T13:04:10.604Z,4.60
2022-10-23T13:06:38.843Z,5.60
2022-10-23T13:09:07.209Z,8.70
2022-10-23T13:11:34.033Z,4.83
2022-10-23T13:14:00.431Z,5.23
2022-10-23T13:16:26.999Z,10.60
2022-10-23T13:18:54.307Z,4.60
2022-10-23T13:21:23.263Z,4.07
2022-10-23T13:23:50.914Z,5.40
2022-10-23T13:26:33.093Z,6.27
2022-10-23T13:29:04.725Z,6.20
2022-10-23T13:31:35.824Z,6.30
2022-10-23T13:34:02.072Z,6.17
2022-10-23T13:36:30.812Z,6.53
2022-10-23T13:39:22.595Z,8.93
2022-10-23T13:41:48.959Z,5.77
2022-10-23T13:44:17.371Z,11.03
2022-10-23T13:46:44.126Z,5.73
2022-10-23T13:49:10.688Z,6.90
2022-10-23T13:51:50.669Z,7.70
2022-10-23T13:54:23.745Z,6.93
2022-10-23T13:56:50.969Z,6.53
2022-10-23T13:59:17.822Z,6.93
2022-10-23T14:01:45.588Z,5.83
2022-10-23T14:04:12.958Z,6.30
2022-10-23T14:06:39.691Z,5.40
2022-10-23T14:09:07.973Z,8.57
2022-10-23T14:11:34.461Z,7.07
2022-10-23T14:14:00.936Z,9.03
2022-10-23T14:16:27.790Z,6.30
2022-10-23T14:18:54.194Z,6.37
2022-10-23T14:21:22.059Z,9.30
2022-10-23T14:23:49.531Z,9.90
2022-10-23T14:26:18.712Z,10.70
2022-10-23T14:28:45.467Z,5.67
2022-10-23T14:31:16.911Z,9.60
2022-10-23T14:33:44.688Z,7.00
2022-10-23T14:36:11.688Z,5.47
2022-10-23T14:38:38.460Z,4.90
2022-10-23T14:41:11.382Z,7.87
2022-10-23T14:43:38.400Z,13.27
2022-10-23T14:46:16.935Z,4.63
2022-10-23T14:48:46.216Z,21.23
2022-10-23T14:51:20.932Z,7.60
2022-10-23T14:53:48.509Z,11.20
2022-10-23T14:56:16.017Z,9.73
2022-10-23T14:58:43.280Z,7.63
2022-10-23T15:01:10.655Z,6.00
2022-10-23T15:03:37.301Z,11.90
2022-10-23T15:06:04.265Z,6.90
2022-10-23T15:08:30.692Z,7.53
2022-10-23T15:11:00.411Z,8.50
2022-10-23T15:13:26.927Z,8.10
2022-10-23T15:16:08.238Z,11.03
2022-10-23T15:21:08.480Z,8.50
2022-10-23T15:23:37.676Z,7.53
2022-10-23T15:26:06.767Z,7.80
2022-10-23T15:28:33.797Z,9.87
2022-10-23T15:31:00.554Z,6.53
2022-10-23T15:33:27.356Z,5.47
2022-10-23T15:35:54.163Z,7.47
2022-10-23T15:38:20.948Z,7.00
2022-10-23T15:40:47.355Z,7.80
2022-10-23T15:43:14.655Z,7.20
2022-10-23T15:45:41.969Z,5.33
2022-10-23T15:48:09.372Z,9.47
2022-10-23T15:50:37.159Z,5.93
2022-10-23T15:53:03.639Z,6.20
2022-10-23T15:55:30.380Z,6.07
2022-10-23T15:58:01.808Z,5.47
2022-10-23T16:00:28.276Z,7.30
2022-10-23T16:02:54.682Z,6.30
2022-10-23T16:05:21.030Z,10.07
2022-10-23T16:07:47.343Z,10.63
2022-10-23T16:10:13.703Z,8.37
2022-10-23T16:12:40.028Z,8.93
2022-10-23T16:15:08.056Z,8.33
2022-10-23T16:17:34.386Z,5.23
2022-10-23T16:20:00.764Z,4.73
2022-10-23T16:22:27.091Z,5.20
2022-10-23T16:24:53.835Z,5.30
2022-10-23T16:27:20.193Z,4.67
2022-10-23T16:29:46.571Z,10.40
2022-10-23T16:32:13.624Z,7.33
2022-10-23T16:34:40.400Z,7.50
2022-10-23T16:37:06.906Z,9.60
2022-10-23T16:39:33.313Z,8.93
2022-10-23T16:41:59.631Z,9.93
2022-10-23T16:44:25.999Z,7.50
2022-10-23T16:46:52.336Z,7.90
2022-10-23T16:49:18.733Z,11.00
2022-10-23T16:51:45.219Z,10.80
2022-10-23T16:54:11.587Z,6.57
2022-10-23T16:56:38.049Z,6.90
2022-10-23T16:59:04.436Z,10.00
2022-10-23T17:01:32.887Z,14.70
2022-10-23T17:04:00.766Z,13.33
2022-10-23T17:06:32.168Z,9.60
2022-10-23T17:09:00.156Z,8.37
2022-10-23T17:11:29.080Z,7.70
2022-10-23T17:13:59.772Z,7.00
2022-10-23T17:16:44.910Z,5.27
2022-10-23T17:19:20.842Z,6.63
2022-10-23T17:21:54.811Z,7.90
2022-10-23T17:24:22.154Z,8.03
2022-10-23T17:26:48.486Z,11.90
2022-10-23T17:29:15.892Z,5.97
2022-10-23T17:31:45.331Z,6.00
2022-10-23T17:34:14.703Z,8.83
2022-10-23T17:36:44.645Z,5.60
2022-10-23T17:39:13.476Z,6.90
2022-10-23T17:41:40.550Z,8.90
2022-10-23T17:44:07.057Z,5.07
2022-10-23T17:46:33.431Z,5.53
2022-10-23T17:51:35.467Z,6.23
2022-10-23T17:54:07.292Z,15.00
2022-10-23T17:56:34.858Z,7.43
2022-10-23T17:59:05.511Z,4.97
2022-10-23T18:01:32.253Z,9.33
2022-10-23T18:04:05.481Z,10.00
2022-10-23T18:06:35.876Z,7.93
2022-10-23T18:09:04.156Z,8.80
2022-10-23T18:11:35.196Z,8.20
2022-10-23T18:14:02.477Z,8.27
2022-10-23T18:16:28.931Z,12.57
2022-10-23T18:18:55.872Z,4.53
2022-10-23T18:21:24.234Z,11.00
2022-10-23T18:23:52.114Z,9.30
2022-10-23T18:26:21.704Z,8.87
2022-10-23T18:28:49.695Z,13.33
2022-10-23T18:31:18.268Z,7.03
2022-10-23T18:33:44.713Z,5.07
2022-10-23T18:36:22.542Z,4.87
2022-10-23T18:38:50.249Z,7.57
2022-10-23T18:41:18.237Z,8.13
2022-10-23T18:43:45.031Z,6.20
2022-10-23T18:46:14.788Z,6.13
2022-10-23T18:48:42.092Z,6.90
2022-10-23T18:51:26.941Z,9.30
2022-10-23T18:53:53.838Z,7.20
2022-10-23T18:56:23.629Z,10.20
2022-10-23T18:58:51.693Z,8.27
2022-10-23T19:01:18.932Z,6.60
2022-10-23T19:03:45.753Z,7.60
2022-10-23T19:06:13.157Z,8.40
2022-10-23T19:08:41.955Z,5.83
2022-10-23T19:11:10.066Z,9.20
2022-10-23T19:13:39.229Z,5.00
2022-10-23T19:16:38.319Z,5.87
2022-10-23T19:19:24.428Z,5.57
2022-10-23T19:21:51.840Z,7.10
2022-10-23T19:24:23.028Z,10.53
2022-10-23T19:26:49.900Z,9.10
2022-10-23T19:29:20.174Z,8.60
2022-10-23T19:31:49.194Z,12.67
2022-10-23T19:34:20.342Z,5.93
2022-10-23T19:36:47.875Z,8.77
2022-10-23T19:39:14.757Z,6.00
2022-10-23T19:41:41.181Z,5.23
2022-10-23T19:44:07.557Z,6.50
2022-10-23T19:46:37.768Z,5.83
2022-10-23T19:49:05.109Z,7.93
2022-10-23T19:51:31.933Z,5.73
2022-10-23T19:53:59.165Z,9.37
2022-10-23T19:56:25.980Z,7.10
2022-10-23T19:58:52.908Z,8.00
2022-10-23T20:01:23.124Z,6.43
2022-10-23T20:03:50.131Z,8.20
2022-10-23T20:06:22.604Z,6.50
2022-10-23T20:08:49.404Z,6.03
2022-10-23T20:11:20.408Z,5.77
2022-10-23T20:13:48.669Z,11.70
2022-10-23T20:16:24.154Z,5.60
2022-10-23T20:18:51.157Z,5.57
2022-10-23T20:21:18.367Z,3.80
2022-10-23T20:23:45.192Z,9.53
2022-10-23T20:26:15.946Z,3.50
2022-10-23T20:28:46.874Z,5.77
2022-10-23T20:31:14.313Z,7.80
2022-10-23T20:33:41.616Z,3.50
2022-10-23T20:36:19.805Z,5.80
2022-10-23T20:38:46.233Z,3.40
2022-10-23T20:41:12.556Z,6.63
2022-10-23T20:43:38.937Z,11.33
2022-10-23T20:46:07.726Z,3.10
2022-10-23T20:48:38.740Z,6.00
2022-10-23T20:51:07.169Z,8.27
2022-10-23T20:53:34.848Z,3.83
2022-10-23T20:56:05.568Z,4.60
2022-10-23T20:58:31.934Z,7.47
2022-10-23T21:01:11.851Z,3.30
2022-10-23T21:03:39.220Z,16.97
2022-10-23T21:06:11.145Z,5.63
2022-10-23T21:08:38.646Z,4.20
2022-10-23T21:11:05.244Z,5.57
2022-10-23T21:13:32.568Z,6.87
2022-10-23T21:15:59.102Z,3.60
2022-10-23T21:18:44.943Z,4.40
2022-10-23T21:21:12.609Z,5.23
2022-10-23T21:23:39.114Z,3.93
2022-10-23T21:26:07.573Z,2.70
2022-10-23T21:28:35.084Z,7.30
2022-10-23T21:31:03.776Z,8.87
2022-10-23T21:33:30.209Z,10.50
2022-10-23T21:35:58.419Z,8.63
2022-10-23T21:38:31.364Z,3.33
2022-10-23T21:41:08.509Z,3.13
2022-10-23T21:43:35.183Z,4.57
2022-10-23T21:46:10.769Z,2.33
2022-10-23T21:48:37.165Z,3.10
2022-10-23T21:51:03.613Z,4.70
2022-10-23T21:53:30.326Z,2.40
2022-10-23T21:56:03.210Z,3.93
2022-10-23T21:58:29.560Z,9.23
2022-10-23T22:00:55.893Z,2.70
2022-10-23T22:03:22.272Z,2.80
2022-10-23T22:05:48.598Z,5.47
2022-10-23T22:08:15.943Z,2.60
2022-10-23T22:10:42.278Z,2.23
2022-10-23T22:13:09.072Z,3.20
2022-10-23T22:15:35.481Z,3.60
2022-10-23T22:18:02.581Z,5.00
2022-10-23T22:20:28.921Z,3.30
2022-10-23T22:22:55.278Z,9.53
2022-10-23T22:25:21.596Z,3.40
2022-10-23T22:27:47.968Z,3.70
2022-10-23T22:30:14.356Z,2.93
2022-10-23T22:32:40.760Z,3.47
2022-10-23T22:35:07.590Z,2.80
2022-10-23T22:37:34.063Z,8.83
2022-10-23T22:40:02.312Z,2.47
2022-10-23T22:42:28.676Z,6.77
2022-10-23T22:44:55.043Z,3.97
2022-10-23T22:47:21.455Z,4.17
2022-10-23T22:49:47.789Z,2.37
2022-10-23T22:52:14.138Z,2.20
2022-10-23T22:54:40.459Z,3.80
2022-10-23T22:57:06.808Z,4.83
2022-10-23T22:59:33.138Z,3.00
2022-10-23T23:01:59.499Z,1.83
2022-10-23T23:04:42.543Z,7.67
2022-10-23T23:07:11.091Z,4.80
2022-10-23T23:09:42.134Z,1.80
2022-10-23T23:12:10.430Z,3.47
2022-10-23T23:14:37.068Z,4.23
2022-10-23T23:17:04.557Z,4.30
2022-10-23T23:19:31.064Z,3.20
2022-10-23T23:21:58.953Z,4.73
2022-10-23T23:24:26.119Z,6.27
2022-10-23T23:26:52.555Z,4.97
2022-10-23T23:29:19.078Z,3.20
2022-10-23T23:31:45.939Z,2.53
2022-10-23T23:34:12.286Z,2.57
2022-10-23T23:36:39.066Z,3.40
2022-10-23T23:39:05.399Z,5.60
2022-10-23T23:41:31.827Z,3.00
2022-10-23T23:43:58.602Z,4.60
2022-10-23T23:46:25.778Z,4.13
2022-10-23T23:48:52.230Z,3.63
2022-10-23T23:51:22.690Z,9.13
2022-10-23T23:53:50.142Z,5.30
2022-10-23T23:56:17.111Z,3.50
2022-10-23T23:58:43.801Z,3.40
